sensor_id;sensor_type;location;lat;lon;timestamp;pressure;altitude;pressure_sealevel;temperature;humidity
32452;BME280;45528;52.102;5.242;2022-11-25T00:02:50;100510.0;;;15.37;61.49
32452;BME280;45528;52.102;5.242;2022-11-25T00:04:28;100507.0;;;15.45;61.45
32452;BME280;45528;52.102;5.242;2022-11-25T00:06:10;100512.0;;;15.14;62.39
32452;BME280;45528;52.102;5.242;2022-11-25T00:07:50;100507.0;;;15.36;61.95
32452;BME280;45528;52.102;5.242;2022-11-25T00:11:04;100506.0;;;15.35;62.06
32452;BME280;45528;52.102;5.242;2022-11-25T00:12:41;100500.0;;;15.34;62.22
32452;BME280;45528;52.102;5.242;2022-11-25T00:14:17;100496.0;;;15.27;62.45
32452;BME280;45528;52.102;5.242;2022-11-25T00:17:29;100492.0;;;15.3;62.46
32452;BME280;45528;52.102;5.242;2022-11-25T00:19:06;100494.0;;;15.35;62.32
32452;BME280;45528;52.102;5.242;2022-11-25T00:20:42;100484.0;;;15.45;62.12
32452;BME280;45528;52.102;5.242;2022-11-25T00:23:56;100488.0;;;15.41;62.31
32452;BME280;45528;52.102;5.242;2022-11-25T00:25:33;100490.0;;;15.42;62.15
32452;BME280;45528;52.102;5.242;2022-11-25T00:27:09;100487.0;;;15.48;62.14
32452;BME280;45528;52.102;5.242;2022-11-25T00:28:46;100489.0;;;15.45;62.2
32452;BME280;45528;52.102;5.242;2022-11-25T00:31:59;100488.0;;;15.39;62.48
32452;BME280;45528;52.102;5.242;2022-11-25T00:33:36;100485.0;;;15.4;62.57
32452;BME280;45528;52.102;5.242;2022-11-25T00:35:12;100488.0;;;15.44;62.61
32452;BME280;45528;52.102;5.242;2022-11-25T00:38:25;100484.0;;;15.4;62.6
32452;BME280;45528;52.102;5.242;2022-11-25T00:40:01;100481.0;;;15.43;62.5
32452;BME280;45528;52.102;5.242;2022-11-25T00:45:47;100480.0;;;15.39;62.87
32452;BME280;45528;52.102;5.242;2022-11-25T00:49:00;100484.0;;;15.5;62.58
32452;BME280;45528;52.102;5.242;2022-11-25T00:50:36;100484.0;;;15.57;62.37
32452;BME280;45528;52.102;5.242;2022-11-25T00:52:14;100478.0;;;15.59;62.41
32452;BME280;45528;52.102;5.242;2022-11-25T00:53:51;100468.0;;;15.43;62.62
32452;BME280;45528;52.102;5.242;2022-11-25T00:57:47;100470.0;;;15.52;62.6
32452;BME280;45528;52.102;5.242;2022-11-25T00:59:24;100472.0;;;15.54;62.53
32452;BME280;45528;52.102;5.242;2022-11-25T01:01:01;100466.0;;;15.52;62.58
32452;BME280;45528;52.102;5.242;2022-11-25T01:02:37;100469.0;;;15.29;63.23
32452;BME280;45528;52.102;5.242;2022-11-25T01:04:13;100468.0;;;15.44;62.8
32452;BME280;45528;52.102;5.242;2022-11-25T01:07:26;100469.0;;;15.53;62.7
32452;BME280;45528;52.102;5.242;2022-11-25T01:09:02;100468.0;;;15.52;62.71
32452;BME280;45528;52.102;5.242;2022-11-25T01:10:39;100469.0;;;15.55;62.7
32452;BME280;45528;52.102;5.242;2022-11-25T01:13:55;100474.0;;;15.59;62.58
32452;BME280;45528;52.102;5.242;2022-11-25T01:15:35;100471.0;;;15.54;62.67
32452;BME280;45528;52.102;5.242;2022-11-25T01:17:11;100467.0;;;15.54;62.7
32452;BME280;45528;52.102;5.242;2022-11-25T01:20:26;100470.0;;;15.48;62.91
32452;BME280;45528;52.102;5.242;2022-11-25T01:22:02;100470.0;;;15.46;62.99
32452;BME280;45528;52.102;5.242;2022-11-25T01:23:39;100470.0;;;15.51;62.84
32452;BME280;45528;52.102;5.242;2022-11-25T01:25:16;100473.0;;;15.53;62.84
32452;BME280;45528;52.102;5.242;2022-11-25T01:28:30;100477.0;;;15.56;62.79
32452;BME280;45528;52.102;5.242;2022-11-25T01:30:08;100478.0;;;15.52;62.84
32452;BME280;45528;52.102;5.242;2022-11-25T01:31:45;100478.0;;;15.53;62.83
32452;BME280;45528;52.102;5.242;2022-11-25T01:34:58;100486.0;;;15.5;62.93
32452;BME280;45528;52.102;5.242;2022-11-25T01:36:34;100492.0;;;15.53;62.91
32452;BME280;45528;52.102;5.242;2022-11-25T01:38:10;100499.0;;;15.6;62.63
32452;BME280;45528;52.102;5.242;2022-11-25T01:41:24;100490.0;;;15.62;62.66
32452;BME280;45528;52.102;5.242;2022-11-25T01:43:01;100501.0;;;15.58;62.67
32452;BME280;45528;52.102;5.242;2022-11-25T01:44:38;100506.0;;;15.58;62.77
32452;BME280;45528;52.102;5.242;2022-11-25T01:46:20;100510.0;;;15.7;62.5
32452;BME280;45528;52.102;5.242;2022-11-25T01:49:47;100515.0;;;15.73;62.35
32452;BME280;45528;52.102;5.242;2022-11-25T01:51:35;100514.0;;;15.76;62.54
32452;BME280;45528;52.102;5.242;2022-11-25T01:53:21;100522.0;;;15.76;62.45
32452;BME280;45528;52.102;5.242;2022-11-25T01:55:01;100524.0;;;15.77;62.45
32452;BME280;45528;52.102;5.242;2022-11-25T01:56:43;100518.0;;;15.71;62.53
32452;BME280;45528;52.102;5.242;2022-11-25T02:00:06;100518.0;;;15.71;62.66
32452;BME280;45528;52.102;5.242;2022-11-25T02:01:44;100517.0;;;15.64;62.92
32452;BME280;45528;52.102;5.242;2022-11-25T02:03:23;100516.0;;;15.71;62.8
32452;BME280;45528;52.102;5.242;2022-11-25T02:05:05;100514.0;;;15.64;62.92
32452;BME280;45528;52.102;5.242;2022-11-25T02:08:28;100521.0;;;15.53;63.47
32452;BME280;45528;52.102;5.242;2022-11-25T02:10:07;100515.0;;;15.59;63.28
32452;BME280;45528;52.102;5.242;2022-11-25T02:11:46;100512.0;;;15.55;63.53
32452;BME280;45528;52.102;5.242;2022-11-25T02:13:24;100512.0;;;15.6;63.54
32452;BME280;45528;52.102;5.242;2022-11-25T02:16:39;100518.0;;;15.7;63.3
32452;BME280;45528;52.102;5.242;2022-11-25T02:18:15;100511.0;;;15.74;63.18
32452;BME280;45528;52.102;5.242;2022-11-25T02:19:58;100516.0;;;15.72;63.13
32452;BME280;45528;52.102;5.242;2022-11-25T02:23:26;100518.0;;;15.72;63.35
32452;BME280;45528;52.102;5.242;2022-11-25T02:25:20;100519.0;;;15.74;63.33
32452;BME280;45528;52.102;5.242;2022-11-25T02:26:58;100515.0;;;15.75;63.36
32452;BME280;45528;52.102;5.242;2022-11-25T02:28:35;100515.0;;;15.78;63.31
32452;BME280;45528;52.102;5.242;2022-11-25T02:30:13;100515.0;;;15.81;63.29
32452;BME280;45528;52.102;5.242;2022-11-25T02:33:26;100516.0;;;15.76;63.4
32452;BME280;45528;52.102;5.242;2022-11-25T02:35:22;100498.0;;;15.66;63.74
32452;BME280;45528;52.102;5.242;2022-11-25T02:37:14;100482.0;;;15.81;63.39
32452;BME280;45528;52.102;5.242;2022-11-25T02:38:55;100484.0;;;15.87;63.29
32452;BME280;45528;52.102;5.242;2022-11-25T02:40:35;100477.0;;;15.71;63.77
32452;BME280;45528;52.102;5.242;2022-11-25T02:43:52;100501.0;;;15.91;63.12
32452;BME280;45528;52.102;5.242;2022-11-25T02:45:38;100513.0;;;15.82;63.41
32452;BME280;45528;52.102;5.242;2022-11-25T02:47:19;100513.0;;;15.95;62.95
32452;BME280;45528;52.102;5.242;2022-11-25T02:48:57;100511.0;;;15.93;62.89
32452;BME280;45528;52.102;5.242;2022-11-25T02:52:11;100508.0;;;15.87;63.2
32452;BME280;45528;52.102;5.242;2022-11-25T02:53:47;100508.0;;;15.87;63.11
32452;BME280;45528;52.102;5.242;2022-11-25T02:55:24;100510.0;;;15.94;62.98
32452;BME280;45528;52.102;5.242;2022-11-25T02:58:37;100515.0;;;15.83;63.17
32452;BME280;45528;52.102;5.242;2022-11-25T03:00:15;100516.0;;;15.79;63.34
32452;BME280;45528;52.102;5.242;2022-11-25T03:01:52;100517.0;;;15.8;63.45
32452;BME280;45528;52.102;5.242;2022-11-25T03:05:04;100515.0;;;15.79;63.53
32452;BME280;45528;52.102;5.242;2022-11-25T03:06:40;100516.0;;;15.84;63.35
32452;BME280;45528;52.102;5.242;2022-11-25T03:08:16;100519.0;;;15.77;63.49
32452;BME280;45528;52.102;5.242;2022-11-25T03:09:53;100521.0;;;15.82;63.45
32452;BME280;45528;52.102;5.242;2022-11-25T03:14:09;100513.0;;;15.78;63.62
32452;BME280;45528;52.102;5.242;2022-11-25T03:17:24;100507.0;;;15.84;63.49
32452;BME280;45528;52.102;5.242;2022-11-25T03:19:00;100508.0;;;15.71;63.66
32452;BME280;45528;52.102;5.242;2022-11-25T03:20:36;100511.0;;;15.87;63.27
32452;BME280;45528;52.102;5.242;2022-11-25T03:23:49;100517.0;;;15.92;63.17
32452;BME280;45528;52.102;5.242;2022-11-25T03:25:26;100516.0;;;15.87;63.16
32452;BME280;45528;52.102;5.242;2022-11-25T03:27:03;100519.0;;;15.93;62.95
32452;BME280;45528;52.102;5.242;2022-11-25T03:28:40;100520.0;;;15.87;63.12
32452;BME280;45528;52.102;5.242;2022-11-25T03:31:55;100535.0;;;15.93;62.95
32452;BME280;45528;52.102;5.242;2022-11-25T03:33:31;100534.0;;;15.88;63.01
32452;BME280;45528;52.102;5.242;2022-11-25T03:35:09;100535.0;;;15.85;63.12
32452;BME280;45528;52.102;5.242;2022-11-25T03:38:22;100533.0;;;15.95;62.77
32452;BME280;45528;52.102;5.242;2022-11-25T03:39:58;100533.0;;;15.92;62.86
32452;BME280;45528;52.102;5.242;2022-11-25T03:41:34;100538.0;;;15.95;62.8
32452;BME280;45528;52.102;5.242;2022-11-25T03:44:47;100537.0;;;15.85;62.86
32452;BME280;45528;52.102;5.242;2022-11-25T03:46:23;100539.0;;;15.96;62.64
32452;BME280;45528;52.102;5.242;2022-11-25T03:47:59;100535.0;;;15.85;62.92
32452;BME280;45528;52.102;5.242;2022-11-25T03:49:35;100543.0;;;15.83;62.92
32452;BME280;45528;52.102;5.242;2022-11-25T03:52:48;100548.0;;;15.89;62.71
32452;BME280;45528;52.102;5.242;2022-11-25T03:54:24;100548.0;;;15.84;62.91
32452;BME280;45528;52.102;5.242;2022-11-25T03:56:01;100555.0;;;15.89;62.79
32452;BME280;45528;52.102;5.242;2022-11-25T03:59:13;100558.0;;;15.82;62.9
32452;BME280;45528;52.102;5.242;2022-11-25T04:00:50;100557.0;;;15.79;62.99
32452;BME280;45528;52.102;5.242;2022-11-25T04:02:27;100555.0;;;15.81;62.81
32452;BME280;45528;52.102;5.242;2022-11-25T04:05:40;100558.0;;;15.74;63.06
32452;BME280;45528;52.102;5.242;2022-11-25T04:07:16;100563.0;;;15.8;62.85
32452;BME280;45528;52.102;5.242;2022-11-25T04:08:53;100570.0;;;15.77;62.93
32452;BME280;45528;52.102;5.242;2022-11-25T04:10:29;100568.0;;;15.79;62.75
32452;BME280;45528;52.102;5.242;2022-11-25T04:14:46;100570.0;;;15.82;62.51
32452;BME280;45528;52.102;5.242;2022-11-25T04:18:01;100571.0;;;15.81;62.64
32452;BME280;45528;52.102;5.242;2022-11-25T04:19:37;100574.0;;;15.68;62.68
32452;BME280;45528;52.102;5.242;2022-11-25T04:21:13;100574.0;;;15.75;62.42
32452;BME280;45528;52.102;5.242;2022-11-25T04:24:26;100581.0;;;15.72;62.65
32452;BME280;45528;52.102;5.242;2022-11-25T04:26:03;100580.0;;;15.65;62.74
32452;BME280;45528;52.102;5.242;2022-11-25T04:27:40;100584.0;;;15.7;62.51
32452;BME280;45528;52.102;5.242;2022-11-25T04:29:16;100580.0;;;15.72;62.4
32452;BME280;45528;52.102;5.242;2022-11-25T04:34:04;100583.0;;;15.71;62.25
32452;BME280;45528;52.102;5.242;2022-11-25T04:38:53;100582.0;;;15.63;62.28
32452;BME280;45528;52.102;5.242;2022-11-25T04:40:29;100587.0;;;15.65;62.12
32452;BME280;45528;52.102;5.242;2022-11-25T04:42:39;100589.0;;;15.58;62.34
32452;BME280;45528;52.102;5.242;2022-11-25T04:44:15;100599.0;;;15.64;61.95
32452;BME280;45528;52.102;5.242;2022-11-25T04:47:29;100598.0;;;15.58;61.91
32452;BME280;45528;52.102;5.242;2022-11-25T04:49:06;100603.0;;;15.53;62.05
32452;BME280;45528;52.102;5.242;2022-11-25T04:50:43;100611.0;;;15.59;61.68
32452;BME280;45528;52.102;5.242;2022-11-25T04:52:20;100612.0;;;15.5;61.7
32452;BME280;45528;52.102;5.242;2022-11-25T04:55:32;100615.0;;;15.34;62.01
32452;BME280;45528;52.102;5.242;2022-11-25T04:57:11;100614.0;;;15.31;62.15
32452;BME280;45528;52.102;5.242;2022-11-25T04:59:52;100620.0;;;15.22;62.12
32452;BME280;45528;52.102;5.242;2022-11-25T05:01:29;100623.0;;;15.31;61.92
32452;BME280;45528;52.102;5.242;2022-11-25T05:03:06;100632.0;;;15.27;62.01
32452;BME280;45528;52.102;5.242;2022-11-25T05:06:22;100635.0;;;15.31;61.54
32452;BME280;45528;52.102;5.242;2022-11-25T05:07:59;100634.0;;;15.28;61.53
32452;BME280;45528;52.102;5.242;2022-11-25T05:09:36;100631.0;;;15.19;61.7
32452;BME280;45528;52.102;5.242;2022-11-25T05:11:13;100635.0;;;15.09;62.04
32452;BME280;45528;52.102;5.242;2022-11-25T05:14:25;100633.0;;;15.11;62.0
32452;BME280;45528;52.102;5.242;2022-11-25T05:16:01;100639.0;;;15.03;62.17
32452;BME280;45528;52.102;5.242;2022-11-25T05:17:38;100640.0;;;14.99;62.23
32452;BME280;45528;52.102;5.242;2022-11-25T05:20:49;100635.0;;;15.06;61.9
32452;BME280;45528;52.102;5.242;2022-11-25T05:22:28;100641.0;;;14.97;62.11
32452;BME280;45528;52.102;5.242;2022-11-25T05:24:05;100645.0;;;15.0;61.87
32452;BME280;45528;52.102;5.242;2022-11-25T05:27:18;100645.0;;;14.98;61.85
32452;BME280;45528;52.102;5.242;2022-11-25T05:28:55;100649.0;;;14.93;61.96
32452;BME280;45528;52.102;5.242;2022-11-25T05:30:31;100655.0;;;14.92;61.92
32452;BME280;45528;52.102;5.242;2022-11-25T05:32:07;100655.0;;;14.84;62.03
32452;BME280;45528;52.102;5.242;2022-11-25T05:35:20;100660.0;;;14.84;62.06
32452;BME280;45528;52.102;5.242;2022-11-25T05:36:57;100657.0;;;14.81;62.2
32452;BME280;45528;52.102;5.242;2022-11-25T05:38:34;100660.0;;;14.85;61.88
32452;BME280;45528;52.102;5.242;2022-11-25T05:41:47;100663.0;;;14.78;61.95
32452;BME280;45528;52.102;5.242;2022-11-25T05:43:23;100666.0;;;14.8;61.96
32452;BME280;45528;52.102;5.242;2022-11-25T05:45:01;100667.0;;;14.72;62.14
32452;BME280;45528;52.102;5.242;2022-11-25T05:48:14;100669.0;;;14.81;61.87
32452;BME280;45528;52.102;5.242;2022-11-25T05:49:50;100664.0;;;14.79;61.86
32452;BME280;45528;52.102;5.242;2022-11-25T05:51:27;100665.0;;;14.76;61.93
32452;BME280;45528;52.102;5.242;2022-11-25T05:53:04;100667.0;;;14.74;61.8
32452;BME280;45528;52.102;5.242;2022-11-25T05:56:16;100665.0;;;14.77;61.84
32452;BME280;45528;52.102;5.242;2022-11-25T05:57:52;100666.0;;;14.73;61.95
32452;BME280;45528;52.102;5.242;2022-11-25T05:59:28;100668.0;;;14.7;61.91
32452;BME280;45528;52.102;5.242;2022-11-25T06:02:43;100669.0;;;14.69;62.16
32452;BME280;45528;52.102;5.242;2022-11-25T06:04:19;100671.0;;;14.73;61.85
32452;BME280;45528;52.102;5.242;2022-11-25T06:05:56;100672.0;;;14.71;61.88
32452;BME280;45528;52.102;5.242;2022-11-25T06:09:09;100674.0;;;14.73;61.85
32452;BME280;45528;52.102;5.242;2022-11-25T06:10:45;100678.0;;;14.64;62.16
32452;BME280;45528;52.102;5.242;2022-11-25T06:12:21;100677.0;;;14.63;62.02
32452;BME280;45528;52.102;5.242;2022-11-25T06:13:57;100685.0;;;14.67;62.03
32452;BME280;45528;52.102;5.242;2022-11-25T06:17:15;100688.0;;;14.67;61.98
32452;BME280;45528;52.102;5.242;2022-11-25T06:18:52;100693.0;;;14.71;61.74
32452;BME280;45528;52.102;5.242;2022-11-25T06:20:28;100703.0;;;14.69;61.7
32452;BME280;45528;52.102;5.242;2022-11-25T06:23:40;100701.0;;;14.65;61.81
32452;BME280;45528;52.102;5.242;2022-11-25T06:25:17;100698.0;;;14.56;61.84
32452;BME280;45528;52.102;5.242;2022-11-25T06:26:53;100703.0;;;14.54;62.13
32452;BME280;45528;52.102;5.242;2022-11-25T06:30:06;100707.0;;;14.48;62.33
32452;BME280;45528;52.102;5.242;2022-11-25T06:31:42;100707.0;;;14.46;62.36
32452;BME280;45528;52.102;5.242;2022-11-25T06:33:18;100699.0;;;14.44;62.2
32452;BME280;45528;52.102;5.242;2022-11-25T06:36:31;100705.0;;;14.47;62.26
32452;BME280;45528;52.102;5.242;2022-11-25T06:38:07;100706.0;;;14.39;62.3
32452;BME280;45528;52.102;5.242;2022-11-25T06:39:43;100714.0;;;14.38;62.35
32452;BME280;45528;52.102;5.242;2022-11-25T06:41:20;100715.0;;;14.35;62.37
32452;BME280;45528;52.102;5.242;2022-11-25T06:44:34;100724.0;;;14.39;62.39
32452;BME280;45528;52.102;5.242;2022-11-25T06:46:11;100725.0;;;14.42;62.14
32452;BME280;45528;52.102;5.242;2022-11-25T06:47:51;100730.0;;;14.41;62.1
32452;BME280;45528;52.102;5.242;2022-11-25T06:51:09;100731.0;;;14.48;61.86
32452;BME280;45528;52.102;5.242;2022-11-25T06:52:46;100733.0;;;14.39;62.01
32452;BME280;45528;52.102;5.242;2022-11-25T06:54:22;100736.0;;;14.35;62.04
32452;BME280;45528;52.102;5.242;2022-11-25T06:56:02;100737.0;;;14.28;62.23
32452;BME280;45528;52.102;5.242;2022-11-25T06:59:21;100738.0;;;14.34;62.24
32452;BME280;45528;52.102;5.242;2022-11-25T07:01:00;100741.0;;;14.34;62.24
32452;BME280;45528;52.102;5.242;2022-11-25T07:02:37;100748.0;;;14.29;62.18
32452;BME280;45528;52.102;5.242;2022-11-25T07:04:13;100746.0;;;14.3;62.29
32452;BME280;45528;52.102;5.242;2022-11-25T07:07:25;100747.0;;;14.32;62.28
32452;BME280;45528;52.102;5.242;2022-11-25T07:09:02;100751.0;;;14.31;62.27
32452;BME280;45528;52.102;5.242;2022-11-25T07:10:40;100753.0;;;14.3;62.29
32452;BME280;45528;52.102;5.242;2022-11-25T07:13:54;100755.0;;;14.26;62.2
32452;BME280;45528;52.102;5.242;2022-11-25T07:15:33;100762.0;;;14.2;62.41
32452;BME280;45528;52.102;5.242;2022-11-25T07:17:09;100768.0;;;14.19;62.45
32452;BME280;45528;52.102;5.242;2022-11-25T07:18:46;100767.0;;;14.16;62.45
32452;BME280;45528;52.102;5.242;2022-11-25T07:22:00;100768.0;;;14.09;62.5
32452;BME280;45528;52.102;5.242;2022-11-25T07:23:38;100777.0;;;14.05;62.48
32452;BME280;45528;52.102;5.242;2022-11-25T07:25:15;100780.0;;;14.04;62.32
32452;BME280;45528;52.102;5.242;2022-11-25T07:28:28;100780.0;;;13.91;62.35
32452;BME280;45528;52.102;5.242;2022-11-25T07:30:05;100783.0;;;13.88;62.63
32452;BME280;45528;52.102;5.242;2022-11-25T07:31:44;100785.0;;;13.92;62.79
32452;BME280;45528;52.102;5.242;2022-11-25T07:34:57;100796.0;;;13.87;62.53
32452;BME280;45528;52.102;5.242;2022-11-25T07:36:34;100792.0;;;13.9;62.76
32452;BME280;45528;52.102;5.242;2022-11-25T07:38:10;100796.0;;;13.89;62.79
32452;BME280;45528;52.102;5.242;2022-11-25T07:39:47;100807.0;;;13.92;62.46
32452;BME280;45528;52.102;5.242;2022-11-25T07:43:02;100807.0;;;13.86;62.71
32452;BME280;45528;52.102;5.242;2022-11-25T07:44:39;100809.0;;;13.86;62.79
32452;BME280;45528;52.102;5.242;2022-11-25T07:46:17;100814.0;;;13.9;62.7
32452;BME280;45528;52.102;5.242;2022-11-25T07:49:30;100818.0;;;13.86;62.62
32452;BME280;45528;52.102;5.242;2022-11-25T07:51:13;100817.0;;;13.89;62.85
32452;BME280;45528;52.102;5.242;2022-11-25T07:52:49;100823.0;;;13.9;62.92
32452;BME280;45528;52.102;5.242;2022-11-25T07:54:25;100827.0;;;13.89;62.93
32452;BME280;45528;52.102;5.242;2022-11-25T07:57:39;100833.0;;;13.91;62.86
32452;BME280;45528;52.102;5.242;2022-11-25T07:59:16;100830.0;;;13.96;62.75
32452;BME280;45528;52.102;5.242;2022-11-25T08:00:55;100830.0;;;13.97;62.66
32452;BME280;45528;52.102;5.242;2022-11-25T08:04:10;100836.0;;;13.92;63.06
32452;BME280;45528;52.102;5.242;2022-11-25T08:05:47;100834.0;;;14.0;62.88
32452;BME280;45528;52.102;5.242;2022-11-25T08:07:23;100839.0;;;14.01;62.92
32452;BME280;45528;52.102;5.242;2022-11-25T08:08:59;100846.0;;;14.02;63.0
32452;BME280;45528;52.102;5.242;2022-11-25T08:12:14;100851.0;;;14.08;62.79
32452;BME280;45528;52.102;5.242;2022-11-25T08:13:51;100851.0;;;14.16;62.81
32452;BME280;45528;52.102;5.242;2022-11-25T08:15:28;100859.0;;;14.23;62.54
32452;BME280;45528;52.102;5.242;2022-11-25T08:18:41;100865.0;;;14.29;62.45
32452;BME280;45528;52.102;5.242;2022-11-25T08:20:18;100860.0;;;14.27;62.37
32452;BME280;45528;52.102;5.242;2022-11-25T08:21:54;100864.0;;;14.29;62.61
32452;BME280;45528;52.102;5.242;2022-11-25T08:25:08;100869.0;;;14.38;62.54
32452;BME280;45528;52.102;5.242;2022-11-25T08:26:46;100869.0;;;14.45;62.4
32452;BME280;45528;52.102;5.242;2022-11-25T08:28:24;100869.0;;;14.47;62.27
32452;BME280;45528;52.102;5.242;2022-11-25T08:30:00;100873.0;;;14.54;62.18
32452;BME280;45528;52.102;5.242;2022-11-25T08:33:14;100876.0;;;14.62;62.09
32452;BME280;45528;52.102;5.242;2022-11-25T08:34:51;100881.0;;;14.74;62.0
32452;BME280;45528;52.102;5.242;2022-11-25T08:36:28;100885.0;;;14.83;61.63
32452;BME280;45528;52.102;5.242;2022-11-25T08:39:50;100890.0;;;14.89;61.32
32452;BME280;45528;52.102;5.242;2022-11-25T08:41:28;100886.0;;;14.99;61.18
32452;BME280;45528;52.102;5.242;2022-11-25T08:43:06;100885.0;;;15.04;61.24
32452;BME280;45528;52.102;5.242;2022-11-25T08:44:42;100889.0;;;14.96;61.37
32452;BME280;45528;52.102;5.242;2022-11-25T08:48:01;100890.0;;;15.03;61.19
32452;BME280;45528;52.102;5.242;2022-11-25T08:49:37;100894.0;;;15.06;61.19
32452;BME280;45528;52.102;5.242;2022-11-25T08:51:16;100895.0;;;15.15;60.91
32452;BME280;45528;52.102;5.242;2022-11-25T08:54:30;100905.0;;;15.17;60.84
32452;BME280;45528;52.102;5.242;2022-11-25T08:56:06;100895.0;;;15.22;60.73
32452;BME280;45528;52.102;5.242;2022-11-25T08:57:43;100897.0;;;15.29;60.58
32452;BME280;45528;52.102;5.242;2022-11-25T08:59:19;100903.0;;;15.44;60.36
32452;BME280;45528;52.102;5.242;2022-11-25T09:02:34;100905.0;;;15.47;60.43
32452;BME280;45528;52.102;5.242;2022-11-25T09:04:11;100906.0;;;15.47;60.15
32452;BME280;45528;52.102;5.242;2022-11-25T09:05:48;100910.0;;;15.38;60.06
32452;BME280;45528;52.102;5.242;2022-11-25T09:09:01;100916.0;;;15.56;59.82
32452;BME280;45528;52.102;5.242;2022-11-25T09:10:39;100923.0;;;15.58;59.9
32452;BME280;45528;52.102;5.242;2022-11-25T09:12:16;100930.0;;;15.67;59.71
32452;BME280;45528;52.102;5.242;2022-11-25T09:13:53;100933.0;;;15.7;59.42
32452;BME280;45528;52.102;5.242;2022-11-25T09:17:08;100934.0;;;15.76;59.22
32452;BME280;45528;52.102;5.242;2022-11-25T09:18:45;100938.0;;;15.71;59.09
32452;BME280;45528;52.102;5.242;2022-11-25T09:20:21;100943.0;;;15.69;59.03
32452;BME280;45528;52.102;5.242;2022-11-25T09:23:34;100940.0;;;15.62;59.12
32452;BME280;45528;52.102;5.242;2022-11-25T09:25:10;100942.0;;;15.54;59.47
32452;BME280;45528;52.102;5.242;2022-11-25T09:26:48;100944.0;;;15.67;59.71
32452;BME280;45528;52.102;5.242;2022-11-25T09:30:02;100950.0;;;15.82;59.27
32452;BME280;45528;52.102;5.242;2022-11-25T09:31:39;100956.0;;;15.87;59.09
32452;BME280;45528;52.102;5.242;2022-11-25T09:33:15;100960.0;;;15.87;59.22
32452;BME280;45528;52.102;5.242;2022-11-25T09:34:52;100967.0;;;15.83;59.07
32452;BME280;45528;52.102;5.242;2022-11-25T09:38:05;100968.0;;;15.94;59.28
32452;BME280;45528;52.102;5.242;2022-11-25T09:39:41;100972.0;;;15.93;59.28
32452;BME280;45528;52.102;5.242;2022-11-25T09:46:28;100976.0;;;16.02;58.83
32452;BME280;45528;52.102;5.242;2022-11-25T09:48:29;100981.0;;;16.11;58.11
32452;BME280;45528;52.102;5.242;2022-11-25T09:50:17;100977.0;;;16.37;58.08
32452;BME280;45528;52.102;5.242;2022-11-25T09:52:06;100980.0;;;16.18;58.31
32452;BME280;45528;52.102;5.242;2022-11-25T09:53:50;100980.0;;;16.43;57.79
32452;BME280;45528;52.102;5.242;2022-11-25T09:57:19;100989.0;;;16.46;57.66
32452;BME280;45528;52.102;5.242;2022-11-25T09:58:59;100989.0;;;16.47;57.65
32452;BME280;45528;52.102;5.242;2022-11-25T10:00:41;100991.0;;;16.4;57.76
32452;BME280;45528;52.102;5.242;2022-11-25T10:02:23;100991.0;;;15.92;58.46
32452;BME280;45528;52.102;5.242;2022-11-25T10:04:05;100987.0;;;16.34;57.8
32452;BME280;45528;52.102;5.242;2022-11-25T10:07:36;101000.0;;;16.64;57.57
32452;BME280;45528;52.102;5.242;2022-11-25T10:09:16;100992.0;;;16.71;57.39
32452;BME280;45528;52.102;5.242;2022-11-25T10:10:57;101001.0;;;16.5;57.23
32452;BME280;45528;52.102;5.242;2022-11-25T10:12:42;101003.0;;;16.57;57.26
32452;BME280;45528;52.102;5.242;2022-11-25T10:16:18;101008.0;;;16.68;57.04
32452;BME280;45528;52.102;5.242;2022-11-25T10:18:13;101007.0;;;16.57;56.97
32452;BME280;45528;52.102;5.242;2022-11-25T10:19:59;101005.0;;;16.61;57.11
32452;BME280;45528;52.102;5.242;2022-11-25T10:21:38;101013.0;;;16.89;56.8
32452;BME280;45528;52.102;5.242;2022-11-25T10:23:20;101011.0;;;16.77;57.08
32452;BME280;45528;52.102;5.242;2022-11-25T10:25:12;101022.0;;;17.04;56.79
32452;BME280;45528;52.102;5.242;2022-11-25T10:28:36;101020.0;;;16.95;56.61
32452;BME280;45528;52.102;5.242;2022-11-25T10:30:17;101020.0;;;17.07;56.23
32452;BME280;45528;52.102;5.242;2022-11-25T10:32:10;101024.0;;;17.03;56.29
32452;BME280;45528;52.102;5.242;2022-11-25T10:33:55;101032.0;;;17.11;56.0
32452;BME280;45528;52.102;5.242;2022-11-25T10:35:37;101031.0;;;17.05;56.48
32452;BME280;45528;52.102;5.242;2022-11-25T10:39:09;101035.0;;;16.98;56.26
32452;BME280;45528;52.102;5.242;2022-11-25T10:40:50;101035.0;;;17.11;56.11
32452;BME280;45528;52.102;5.242;2022-11-25T10:42:28;101039.0;;;17.22;56.01
32452;BME280;45528;52.102;5.242;2022-11-25T10:44:23;101044.0;;;17.06;56.49
32452;BME280;45528;52.102;5.242;2022-11-25T10:46:09;101041.0;;;17.29;55.61
32452;BME280;45528;52.102;5.242;2022-11-25T10:50:06;101055.0;;;17.16;55.57
32452;BME280;45528;52.102;5.242;2022-11-25T10:51:46;101055.0;;;17.29;56.17
32452;BME280;45528;52.102;5.242;2022-11-25T10:53:24;101055.0;;;17.32;55.7
32452;BME280;45528;52.102;5.242;2022-11-25T10:55:10;101060.0;;;17.59;55.22
32452;BME280;45528;52.102;5.242;2022-11-25T10:56:51;101060.0;;;17.7;55.39
32452;BME280;45528;52.102;5.242;2022-11-25T10:58:30;101066.0;;;17.59;55.47
32452;BME280;45528;52.102;5.242;2022-11-25T11:02:13;101067.0;;;17.62;55.69
32452;BME280;45528;52.102;5.242;2022-11-25T11:04:02;101069.0;;;17.59;55.15
32452;BME280;45528;52.102;5.242;2022-11-25T11:05:44;101077.0;;;17.27;55.52
32452;BME280;45528;52.102;5.242;2022-11-25T11:07:23;101078.0;;;17.25;55.09
32452;BME280;45528;52.102;5.242;2022-11-25T11:09:00;101082.0;;;17.34;55.37
32452;BME280;45528;52.102;5.242;2022-11-25T11:12:18;101087.0;;;17.62;55.42
32452;BME280;45528;52.102;5.242;2022-11-25T11:14:10;101094.0;;;17.36;55.66
32452;BME280;45528;52.102;5.242;2022-11-25T11:15:49;101097.0;;;17.63;54.96
32452;BME280;45528;52.102;5.242;2022-11-25T11:17:32;101099.0;;;17.86;55.81
32452;BME280;45528;52.102;5.242;2022-11-25T11:21:05;101105.0;;;17.54;55.16
32452;BME280;45528;52.102;5.242;2022-11-25T11:22:48;101105.0;;;17.72;55.19
32452;BME280;45528;52.102;5.242;2022-11-25T11:24:29;101106.0;;;17.82;54.47